Time;durP1;ratioP1;P1;durP2;ratioP2;P2;SDS_P1;SDS_P2;PMS_P1;PMS_P2;Temp;Humidity;BMP_temperature;BMP_pressure;BME280_temperature;BME280_humidity;BME280_pressure;Samples;Min_cycle;Max_cycle;Signal;HPM_P1;HPM_P2
2023/12/25 00:00:12;;;;;;;21.10;5.55;;;;;;;;;;5076542;28;20037;-85
2023/12/25 00:02:38;;;;;;;30.00;5.38;;;;;;;;;;5074275;28;20051;-84
2023/12/25 00:05:04;;;;;;;24.30;5.07;;;;;;;;;;5074498;28;20047;-85
2023/12/25 00:07:30;;;;;;;25.27;5.18;;;;;;;;;;5078373;28;20044;-85
2023/12/25 00:09:56;;;;;;;26.33;5.47;;;;;;;;;;5070571;28;20044;-84
2023/12/25 00:12:25;;;;;;;20.75;4.53;;;;;;;;;;5074585;28;20456;-85
2023/12/25 00:14:51;;;;;;;17.30;4.53;;;;;;;;;;5082048;28;20201;-84
2023/12/25 00:17:17;;;;;;;17.58;5.18;;;;;;;;;;5073443;28;20139;-84
2023/12/25 00:19:43;;;;;;;17.13;4.20;;;;;;;;;;5076689;28;20582;-84
2023/12/25 00:22:09;;;;;;;15.38;3.70;;;;;;;;;;5082790;28;20052;-85
2023/12/25 00:24:35;;;;;;;17.67;5.97;;;;;;;;;;5091163;28;20040;-84
2023/12/25 00:27:01;;;;;;;22.67;4.45;;;;;;;;;;5086772;28;20144;-84
2023/12/25 00:29:27;;;;;;;25.98;4.65;;;;;;;;;;5100981;28;20744;-86
2023/12/25 00:31:53;;;;;;;17.65;4.65;;;;;;;;;;5085163;28;20135;-84
2023/12/25 00:34:19;;;;;;;19.33;4.15;;;;;;;;;;5082985;28;20052;-84
2023/12/25 00:36:45;;;;;;;13.38;3.78;;;;;;;;;;5076288;28;20060;-84
2023/12/25 00:39:13;;;;;;;20.77;4.47;;;;;;;;;;5082416;28;20137;-84
2023/12/25 00:41:39;;;;;;;16.60;4.15;;;;;;;;;;5082188;28;20484;-83
2023/12/25 00:44:05;;;;;;;14.75;4.57;;;;;;;;;;5079106;28;20048;-84
2023/12/25 00:46:31;;;;;;;15.80;3.88;;;;;;;;;;5078912;28;20503;-84
2023/12/25 00:48:57;;;;;;;13.40;4.47;;;;;;;;;;5081688;28;20045;-83
2023/12/25 00:51:25;;;;;;;15.40;4.13;;;;;;;;;;5079687;28;20040;-84
2023/12/25 00:53:51;;;;;;;16.17;4.00;;;;;;;;;;5076584;28;20381;-82
2023/12/25 00:56:19;;;;;;;9.13;2.92;;;;;;;;;;5078560;28;20415;-84
2023/12/25 00:58:45;;;;;;;14.13;3.97;;;;;;;;;;5087085;28;20059;-84
2023/12/25 01:01:11;;;;;;;12.43;3.47;;;;;;;;;;5086980;28;20106;-84
2023/12/25 01:03:37;;;;;;;11.43;3.88;;;;;;;;;;5082790;28;20586;-83
2023/12/25 01:06:03;;;;;;;12.70;3.30;;;;;;;;;;5081582;28;20037;-84
2023/12/25 01:08:30;;;;;;;13.32;3.67;;;;;;;;;;5082545;28;20040;-83
2023/12/25 01:11:01;;;;;;;16.30;4.07;;;;;;;;;;5087361;28;20044;-84
2023/12/25 01:13:27;;;;;;;9.02;3.38;;;;;;;;;;5081113;28;20155;-85
2023/12/25 01:15:53;;;;;;;11.68;4.18;;;;;;;;;;5085939;28;20157;-85
2023/12/25 01:18:28;;;;;;;14.75;3.58;;;;;;;;;;5106950;28;20556;-84
2023/12/25 01:20:54;;;;;;;9.88;3.45;;;;;;;;;;5087575;28;20051;-84
2023/12/25 01:23:20;;;;;;;11.32;3.63;;;;;;;;;;5087543;28;20075;-84
2023/12/25 01:25:46;;;;;;;13.95;3.92;;;;;;;;;;5086099;28;20124;-84
2023/12/25 01:28:12;;;;;;;11.32;3.40;;;;;;;;;;5092162;28;20071;-84
2023/12/25 01:30:38;;;;;;;19.85;4.03;;;;;;;;;;5078283;28;20047;-83
2023/12/25 01:33:04;;;;;;;12.32;3.80;;;;;;;;;;5099408;28;20415;-83
2023/12/25 01:35:30;;;;;;;16.60;3.38;;;;;;;;;;5105994;28;20050;-83
2023/12/25 01:37:56;;;;;;;8.88;3.22;;;;;;;;;;5092401;28;20047;-83
2023/12/25 01:40:22;;;;;;;19.40;4.05;;;;;;;;;;5092031;28;20043;-84
2023/12/25 01:42:48;;;;;;;14.68;4.07;;;;;;;;;;5086703;28;20059;-84
2023/12/25 01:45:14;;;;;;;14.43;4.18;;;;;;;;;;5099236;28;20038;-84
2023/12/25 01:47:40;;;;;;;18.95;4.30;;;;;;;;;;5094784;28;20490;-84
2023/12/25 01:50:07;;;;;;;13.88;3.60;;;;;;;;;;5087846;28;20738;-84
2023/12/25 01:52:34;;;;;;;15.15;3.90;;;;;;;;;;5088539;28;20077;-84
2023/12/25 01:55:01;;;;;;;26.10;4.45;;;;;;;;;;5101392;27;20043;-84
2023/12/25 01:57:29;;;;;;;16.90;4.55;;;;;;;;;;5112457;28;20122;-84
2023/12/25 01:59:55;;;;;;;26.15;5.38;;;;;;;;;;5106250;28;20050;-84
2023/12/25 02:02:24;;;;;;;17.40;3.97;;;;;;;;;;5078917;28;20116;-84
2023/12/25 02:04:50;;;;;;;16.15;4.43;;;;;;;;;;5081011;28;20047;-85
2023/12/25 02:07:16;;;;;;;21.52;5.10;;;;;;;;;;5086152;28;20032;-84
2023/12/25 02:09:48;;;;;;;12.57;4.32;;;;;;;;;;5081610;27;20206;-84
2023/12/25 02:12:14;;;;;;;17.52;4.40;;;;;;;;;;5081034;28;20047;-84
2023/12/25 02:14:40;;;;;;;20.10;5.20;;;;;;;;;;5084146;27;20356;-84
2023/12/25 02:17:06;;;;;;;13.80;3.90;;;;;;;;;;5083049;28;20193;-84
2023/12/25 02:19:37;;;;;;;19.13;4.18;;;;;;;;;;5087216;28;20054;-84
2023/12/25 02:22:03;;;;;;;13.05;3.85;;;;;;;;;;5081440;27;20040;-84
2023/12/25 02:24:31;;;;;;;19.85;5.40;;;;;;;;;;5092190;28;20148;-84
2023/12/25 02:26:57;;;;;;;13.82;4.65;;;;;;;;;;5085588;27;20046;-84
2023/12/25 02:29:23;;;;;;;12.63;4.00;;;;;;;;;;5073594;28;20067;-84
2023/12/25 02:31:49;;;;;;;14.80;3.95;;;;;;;;;;5084148;28;20397;-84
2023/12/25 02:34:15;;;;;;;18.38;4.57;;;;;;;;;;5088099;28;20403;-84
2023/12/25 02:36:41;;;;;;;16.42;3.65;;;;;;;;;;5106799;28;20047;-84
2023/12/25 02:39:07;;;;;;;16.63;3.75;;;;;;;;;;5086255;28;20050;-84
2023/12/25 02:41:33;;;;;;;17.17;5.20;;;;;;;;;;5084534;28;20441;-84
2023/12/25 02:44:00;;;;;;;11.70;3.88;;;;;;;;;;5082383;28;20105;-84
2023/12/25 02:46:26;;;;;;;17.73;4.97;;;;;;;;;;5076749;28;20040;-85
2023/12/25 02:48:52;;;;;;;14.70;3.88;;;;;;;;;;5079240;28;20101;-84
2023/12/25 02:51:18;;;;;;;14.60;4.35;;;;;;;;;;5098053;28;20129;-84
2023/12/25 02:53:44;;;;;;;21.15;4.72;;;;;;;;;;5097868;28;20123;-84
2023/12/25 02:56:10;;;;;;;18.15;4.43;;;;;;;;;;5097472;28;20114;-84
2023/12/25 02:58:36;;;;;;;18.23;4.25;;;;;;;;;;5096824;28;20472;-83
2023/12/25 03:01:02;;;;;;;17.02;4.30;;;;;;;;;;5079799;28;20074;-84
2023/12/25 03:03:28;;;;;;;12.75;3.85;;;;;;;;;;5096131;28;20071;-85
2023/12/25 03:05:54;;;;;;;20.70;4.03;;;;;;;;;;5077811;28;20092;-84
2023/12/25 03:08:20;;;;;;;11.23;3.55;;;;;;;;;;5082783;28;20063;-83
2023/12/25 03:10:46;;;;;;;11.75;4.10;;;;;;;;;;5092522;28;20344;-84
2023/12/25 03:13:12;;;;;;;12.13;3.33;;;;;;;;;;5088146;28;20060;-84
2023/12/25 03:15:41;;;;;;;19.20;4.70;;;;;;;;;;5089037;28;20383;-85
2023/12/25 03:18:07;;;;;;;20.25;4.53;;;;;;;;;;5079655;28;20415;-84
2023/12/25 03:20:33;;;;;;;16.60;4.32;;;;;;;;;;5085159;28;20040;-84
2023/12/25 03:22:58;;;;;;;8.85;3.83;;;;;;;;;;5075355;28;20044;-84
2023/12/25 03:25:24;;;;;;;23.08;4.90;;;;;;;;;;5083770;28;20052;-84
2023/12/25 03:27:50;;;;;;;22.20;5.10;;;;;;;;;;5084430;28;20433;-84
2023/12/25 03:30:16;;;;;;;20.77;4.63;;;;;;;;;;5080396;28;20048;-84
2023/12/25 03:32:42;;;;;;;18.50;4.10;;;;;;;;;;5084528;28;20040;-84
2023/12/25 03:35:09;;;;;;;17.35;4.63;;;;;;;;;;5099845;28;20040;-83
2023/12/25 03:37:35;;;;;;;15.50;4.00;;;;;;;;;;5088092;28;20054;-84
2023/12/25 03:40:01;;;;;;;15.15;3.95;;;;;;;;;;5080410;28;20467;-84
2023/12/25 03:42:28;;;;;;;16.95;3.95;;;;;;;;;;5080305;28;20050;-83
2023/12/25 03:44:54;;;;;;;15.57;4.70;;;;;;;;;;5080718;28;20060;-84
2023/12/25 03:47:20;;;;;;;30.13;5.53;;;;;;;;;;5080314;28;20048;-84
2023/12/25 03:49:46;;;;;;;18.15;5.35;;;;;;;;;;5080814;28;20048;-84
2023/12/25 03:52:12;;;;;;;17.85;4.65;;;;;;;;;;5082341;28;20053;-84
2023/12/25 03:54:38;;;;;;;13.45;3.85;;;;;;;;;;5080353;28;20088;-83
2023/12/25 03:57:06;;;;;;;21.45;4.65;;;;;;;;;;5081926;28;20050;-84
2023/12/25 03:59:32;;;;;;;11.77;3.58;;;;;;;;;;5082440;28;20040;-84
2023/12/25 04:01:58;;;;;;;23.17;4.35;;;;;;;;;;5077474;28;20120;-84
2023/12/25 04:04:24;;;;;;;20.13;4.43;;;;;;;;;;5083699;28;20298;-84
2023/12/25 04:06:50;;;;;;;14.65;4.32;;;;;;;;;;5081859;28;20565;-85
2023/12/25 04:09:16;;;;;;;19.35;4.63;;;;;;;;;;5081894;28;20131;-84
2023/12/25 04:11:42;;;;;;;21.17;4.82;;;;;;;;;;5083252;28;20167;-84
2023/12/25 04:14:08;;;;;;;19.85;4.45;;;;;;;;;;5083672;28;20052;-84
2023/12/25 04:16:34;;;;;;;13.85;3.60;;;;;;;;;;5090114;28;20048;-84
2023/12/25 04:19:00;;;;;;;13.32;3.90;;;;;;;;;;5102826;28;20055;-84
2023/12/25 04:21:27;;;;;;;16.75;4.05;;;;;;;;;;5089928;28;20499;-84
2023/12/25 04:23:54;;;;;;;14.85;4.07;;;;;;;;;;5100249;28;20051;-84
2023/12/25 04:26:21;;;;;;;18.13;3.97;;;;;;;;;;5100255;28;20047;-84
2023/12/25 04:28:47;;;;;;;23.38;4.10;;;;;;;;;;5088303;28;20399;-83
2023/12/25 04:31:14;;;;;;;16.73;4.35;;;;;;;;;;5078869;28;20039;-83
2023/12/25 04:33:40;;;;;;;19.70;4.88;;;;;;;;;;5079668;28;20063;-84
2023/12/25 04:36:06;;;;;;;12.93;3.63;;;;;;;;;;5112614;27;20055;-84
2023/12/25 04:38:32;;;;;;;16.00;4.53;;;;;;;;;;5090289;28;20070;-84
2023/12/25 04:40:59;;;;;;;18.00;4.88;;;;;;;;;;5111347;27;20100;-84
2023/12/25 04:43:25;;;;;;;19.88;4.78;;;;;;;;;;5102686;28;20047;-84
2023/12/25 04:45:51;;;;;;;17.38;4.57;;;;;;;;;;5093935;28;20043;-84
2023/12/25 04:48:17;;;;;;;21.67;4.80;;;;;;;;;;5109033;28;20043;-83
2023/12/25 04:50:44;;;;;;;14.25;4.47;;;;;;;;;;5085563;28;20136;-84
2023/12/25 04:53:10;;;;;;;18.98;4.45;;;;;;;;;;5109636;28;20051;-83
2023/12/25 04:55:37;;;;;;;22.50;4.78;;;;;;;;;;5091057;28;20566;-84
2023/12/25 04:58:04;;;;;;;19.58;4.45;;;;;;;;;;5105910;27;20043;-84
2023/12/25 05:00:31;;;;;;;19.83;4.47;;;;;;;;;;5096675;28;20462;-84
2023/12/25 05:02:57;;;;;;;19.20;4.63;;;;;;;;;;5088442;28;20059;-84
2023/12/25 05:05:23;;;;;;;25.45;4.70;;;;;;;;;;5086662;28;20051;-84
2023/12/25 05:07:49;;;;;;;20.77;5.50;;;;;;;;;;5089259;28;20078;-84
2023/12/25 05:10:15;;;;;;;24.20;5.47;;;;;;;;;;5085212;27;20388;-84
2023/12/25 05:12:41;;;;;;;23.70;5.15;;;;;;;;;;5107507;28;20051;-84
2023/12/25 05:15:07;;;;;;;21.08;5.40;;;;;;;;;;5114543;27;20044;-84
2023/12/25 05:17:34;;;;;;;22.27;4.93;;;;;;;;;;5092565;28;20471;-84
2023/12/25 05:20:00;;;;;;;23.63;5.72;;;;;;;;;;5076602;28;20059;-84
2023/12/25 05:22:26;;;;;;;17.42;4.47;;;;;;;;;;5089300;27;20044;-84
2023/12/25 05:24:52;;;;;;;26.27;4.72;;;;;;;;;;5105960;28;20043;-84
2023/12/25 05:27:18;;;;;;;15.30;4.20;;;;;;;;;;5110535;27;20127;-84
2023/12/25 05:29:44;;;;;;;18.05;4.80;;;;;;;;;;5085969;28;20079;-84
2023/12/25 05:32:11;;;;;;;22.30;4.72;;;;;;;;;;5102040;27;20122;-84
2023/12/25 05:34:36;;;;;;;20.42;5.15;;;;;;;;;;5088202;28;20483;-84
2023/12/25 05:37:02;;;;;;;15.88;4.15;;;;;;;;;;5088873;28;20051;-84
2023/12/25 05:39:28;;;;;;;18.50;5.30;;;;;;;;;;5093404;28;20039;-84
2023/12/25 05:41:54;;;;;;;20.08;4.88;;;;;;;;;;5101794;28;20376;-84
2023/12/25 05:44:20;;;;;;;22.58;5.13;;;;;;;;;;5100383;28;20054;-84
2023/12/25 05:46:47;;;;;;;11.40;3.78;;;;;;;;;;5103424;27;20043;-84
2023/12/25 05:49:13;;;;;;;12.90;3.67;;;;;;;;;;5104771;27;20046;-84
2023/12/25 05:51:39;;;;;;;24.05;5.82;;;;;;;;;;5095989;28;20048;-84
2023/12/25 05:54:06;;;;;;;15.88;4.22;;;;;;;;;;5077926;28;20044;-84
2023/12/25 05:56:32;;;;;;;15.52;4.68;;;;;;;;;;5081131;28;20402;-83
2023/12/25 05:59:05;;;;;;;15.27;3.83;;;;;;;;;;5081110;28;20353;-85
2023/12/25 06:01:31;;;;;;;21.65;5.50;;;;;;;;;;5096386;27;20046;-83
2023/12/25 06:03:58;;;;;;;19.92;5.22;;;;;;;;;;5094322;27;20032;-84
2023/12/25 06:06:24;;;;;;;16.45;4.43;;;;;;;;;;5077377;28;20043;-84
2023/12/25 06:08:50;;;;;;;17.13;4.57;;;;;;;;;;5078167;28;20044;-83
2023/12/25 06:11:16;;;;;;;20.10;4.32;;;;;;;;;;5091056;28;20062;-84
2023/12/25 06:13:42;;;;;;;14.95;4.28;;;;;;;;;;5107655;28;20070;-84
2023/12/25 06:16:08;;;;;;;16.45;3.65;;;;;;;;;;5083909;28;20063;-83
2023/12/25 06:18:34;;;;;;;13.82;3.97;;;;;;;;;;5075056;28;20079;-84
2023/12/25 06:21:00;;;;;;;20.65;5.15;;;;;;;;;;5087256;28;20090;-84
2023/12/25 06:23:26;;;;;;;19.48;4.40;;;;;;;;;;5090463;27;20055;-84
2023/12/25 06:25:55;;;;;;;17.40;4.32;;;;;;;;;;5095420;27;20040;-84
2023/12/25 06:28:21;;;;;;;13.80;4.57;;;;;;;;;;5100424;27;20097;-85
2023/12/25 06:30:47;;;;;;;13.45;3.95;;;;;;;;;;5107329;27;20044;-84
2023/12/25 06:33:14;;;;;;;19.83;4.72;;;;;;;;;;5090456;28;20407;-84
2023/12/25 06:35:40;;;;;;;18.15;4.75;;;;;;;;;;5090143;28;20055;-84
2023/12/25 06:38:06;;;;;;;16.73;4.75;;;;;;;;;;5106385;28;20441;-84
2023/12/25 06:40:32;;;;;;;24.13;4.50;;;;;;;;;;5105855;27;20399;-84
2023/12/25 06:42:58;;;;;;;22.27;5.60;;;;;;;;;;5113069;27;20044;-84
2023/12/25 06:45:24;;;;;;;17.52;4.72;;;;;;;;;;5086924;28;20081;-84
2023/12/25 06:47:52;;;;;;;21.55;4.80;;;;;;;;;;5100239;27;20047;-84
2023/12/25 06:50:18;;;;;;;15.75;4.35;;;;;;;;;;5097155;28;20048;-84
2023/12/25 06:52:44;;;;;;;16.60;4.13;;;;;;;;;;5092457;28;20101;-84
2023/12/25 06:55:11;;;;;;;17.13;3.75;;;;;;;;;;5100309;27;20054;-84
2023/12/25 06:57:37;;;;;;;14.45;3.60;;;;;;;;;;5106801;27;20443;-84
2023/12/25 07:00:03;;;;;;;18.65;3.72;;;;;;;;;;5087976;28;20104;-84
2023/12/25 07:02:30;;;;;;;14.52;3.85;;;;;;;;;;5112817;27;20046;-84
2023/12/25 07:04:56;;;;;;;14.73;4.00;;;;;;;;;;5090393;28;20384;-84
2023/12/25 07:07:22;;;;;;;19.77;4.30;;;;;;;;;;5104491;27;20399;-84
2023/12/25 07:09:48;;;;;;;17.67;4.32;;;;;;;;;;5103053;28;20060;-84
2023/12/25 07:12:14;;;;;;;24.50;4.35;;;;;;;;;;5089371;27;20051;-84
2023/12/25 07:14:45;;;;;;;24.20;5.25;;;;;;;;;;5092305;28;20372;-83
2023/12/25 07:17:11;;;;;;;15.52;4.65;;;;;;;;;;5089645;28;20064;-81
2023/12/25 07:19:37;;;;;;;19.75;4.32;;;;;;;;;;5090377;28;20610;-81
2023/12/25 07:22:04;;;;;;;17.60;5.63;;;;;;;;;;5087879;28;20047;-82
2023/12/25 07:24:30;;;;;;;18.85;4.65;;;;;;;;;;5080818;28;20055;-83
2023/12/25 07:26:56;;;;;;;20.77;4.90;;;;;;;;;;5072101;28;20510;-84
2023/12/25 07:29:22;;;;;;;11.40;3.67;;;;;;;;;;5081625;28;20441;-83
2023/12/25 07:31:48;;;;;;;16.58;4.10;;;;;;;;;;5081666;28;20170;-83
2023/12/25 07:34:14;;;;;;;19.02;4.53;;;;;;;;;;5077523;28;20090;-83
2023/12/25 07:36:40;;;;;;;19.50;4.18;;;;;;;;;;5093319;28;20044;-86
2023/12/25 07:39:06;;;;;;;21.70;5.00;;;;;;;;;;5077233;28;20480;-84
2023/12/25 07:41:33;;;;;;;12.68;3.90;;;;;;;;;;5079930;28;20044;-85
2023/12/25 07:44:00;;;;;;;16.75;4.95;;;;;;;;;;5079990;28;20097;-84
2023/12/25 07:46:27;;;;;;;15.32;4.22;;;;;;;;;;5079827;28;20044;-84
2023/12/25 07:48:53;;;;;;;19.40;4.40;;;;;;;;;;5073488;28;20127;-87
2023/12/25 07:51:19;;;;;;;19.85;4.22;;;;;;;;;;5076800;28;20044;-87
2023/12/25 07:53:46;;;;;;;17.38;4.63;;;;;;;;;;5090074;28;20102;-88
2023/12/25 07:56:12;;;;;;;15.38;4.15;;;;;;;;;;5108203;28;20047;-85
2023/12/25 07:58:38;;;;;;;19.40;5.05;;;;;;;;;;5085784;28;20558;-87
2023/12/25 08:01:04;;;;;;;20.95;4.47;;;;;;;;;;5080862;28;20123;-82
2023/12/25 08:03:30;;;;;;;14.52;4.75;;;;;;;;;;5087911;28;20131;-81
2023/12/25 08:05:56;;;;;;;18.70;4.45;;;;;;;;;;5089583;28;20126;-81
2023/12/25 08:08:22;;;;;;;23.60;4.80;;;;;;;;;;5084158;28;20054;-82
2023/12/25 08:10:48;;;;;;;25.83;5.18;;;;;;;;;;5085450;28;20982;-83
2023/12/25 08:13:18;;;;;;;22.27;4.95;;;;;;;;;;5083396;28;20036;-81
2023/12/25 08:15:44;;;;;;;24.05;4.95;;;;;;;;;;5081609;28;20041;-81
2023/12/25 08:18:10;;;;;;;34.53;11.98;;;;;;;;;;5081386;28;20055;-81
2023/12/25 08:20:36;;;;;;;21.90;5.80;;;;;;;;;;5087873;28;20047;-80
2023/12/25 08:23:02;;;;;;;24.83;4.88;;;;;;;;;;5088536;28;20044;-79
2023/12/25 08:25:28;;;;;;;20.92;4.57;;;;;;;;;;5093961;28;20450;-82
2023/12/25 08:27:54;;;;;;;23.80;4.78;;;;;;;;;;5091753;28;20051;-84
2023/12/25 08:30:21;;;;;;;21.58;5.47;;;;;;;;;;5083512;28;20131;-87
2023/12/25 08:32:47;;;;;;;16.50;4.63;;;;;;;;;;5078989;28;20044;-86
2023/12/25 08:35:13;;;;;;;21.95;4.68;;;;;;;;;;5080072;28;20044;-87
2023/12/25 08:37:39;;;;;;;16.92;4.55;;;;;;;;;;5083044;28;20079;-86
2023/12/25 08:40:05;;;;;;;14.88;4.78;;;;;;;;;;5077631;28;20045;-87
2023/12/25 08:42:31;;;;;;;16.40;4.63;;;;;;;;;;5077869;28;20059;-82
2023/12/25 08:44:57;;;;;;;21.10;4.75;;;;;;;;;;5076601;28;20046;-88
2023/12/25 08:47:25;;;;;;;16.40;4.20;;;;;;;;;;5083856;28;20040;-86
2023/12/25 08:49:51;;;;;;;18.58;4.72;;;;;;;;;;5076865;28;20063;-83
2023/12/25 08:52:17;;;;;;;19.13;4.75;;;;;;;;;;5078956;28;20079;-86
2023/12/25 08:54:43;;;;;;;20.38;5.05;;;;;;;;;;5086145;28;20435;-86
2023/12/25 08:57:09;;;;;;;19.23;4.30;;;;;;;;;;5083880;28;20080;-87
2023/12/25 08:59:36;;;;;;;17.48;4.72;;;;;;;;;;5078661;28;20040;-87
2023/12/25 09:02:02;;;;;;;17.70;5.00;;;;;;;;;;5082448;28;20072;-88
2023/12/25 09:04:28;;;;;;;21.15;5.07;;;;;;;;;;5076916;28;20089;-88
2023/12/25 09:06:54;;;;;;;13.70;4.25;;;;;;;;;;5093626;28;20507;-87
2023/12/25 09:09:20;;;;;;;15.20;3.75;;;;;;;;;;5071439;28;20059;-87
2023/12/25 09:11:47;;;;;;;20.95;4.32;;;;;;;;;;5074430;28;20541;-87
2023/12/25 09:14:13;;;;;;;20.17;4.00;;;;;;;;;;5075004;28;20048;-86
2023/12/25 09:16:39;;;;;;;23.17;4.53;;;;;;;;;;5077776;28;20484;-86
2023/12/25 09:19:05;;;;;;;22.42;4.47;;;;;;;;;;5076565;28;20063;-82
2023/12/25 09:21:38;;;;;;;22.13;4.75;;;;;;;;;;5079118;28;20040;-82
2023/12/25 09:24:07;;;;;;;21.23;4.77;;;;;;;;;;5079446;28;20047;-81
2023/12/25 09:26:33;;;;;;;16.50;4.78;;;;;;;;;;5093017;28;20040;-82
2023/12/25 09:28:59;;;;;;;18.70;4.10;;;;;;;;;;5100475;28;20044;-81
2023/12/25 09:31:25;;;;;;;18.63;3.95;;;;;;;;;;5085536;28;20047;-85
2023/12/25 09:33:51;;;;;;;21.58;5.35;;;;;;;;;;5094823;28;20078;-81
2023/12/25 09:36:17;;;;;;;28.42;5.80;;;;;;;;;;5102941;27;20593;-82
2023/12/25 09:38:43;;;;;;;24.25;5.13;;;;;;;;;;5097947;28;20052;-82
2023/12/25 09:41:10;;;;;;;22.50;5.38;;;;;;;;;;5097874;28;20040;-81
2023/12/25 09:43:41;;;;;;;24.05;5.13;;;;;;;;;;5099008;27;20050;-81
2023/12/25 09:46:07;;;;;;;18.52;4.60;;;;;;;;;;5080746;28;20043;-81
2023/12/25 09:48:37;;;;;;;22.85;5.68;;;;;;;;;;5076593;28;20469;-80
2023/12/25 09:51:04;;;;;;;24.25;5.32;;;;;;;;;;5099263;27;20047;-82
2023/12/25 09:53:30;;;;;;;23.08;5.30;;;;;;;;;;5080200;28;20050;-79
2023/12/25 09:55:57;;;;;;;20.02;4.78;;;;;;;;;;5081099;28;20044;-79
2023/12/25 09:58:23;;;;;;;21.45;5.63;;;;;;;;;;5088511;28;20047;-80
2023/12/25 10:00:49;;;;;;;22.17;5.38;;;;;;;;;;5085086;28;20507;-79
2023/12/25 10:03:16;;;;;;;18.70;5.18;;;;;;;;;;5100235;28;20109;-79
2023/12/25 10:05:45;;;;;;;22.58;5.03;;;;;;;;;;5109756;28;20093;-79
2023/12/25 10:08:11;;;;;;;21.67;5.32;;;;;;;;;;5097262;28;20488;-79
2023/12/25 10:10:37;;;;;;;18.55;4.75;;;;;;;;;;5103931;28;20076;-79
2023/12/25 10:13:04;;;;;;;23.25;4.95;;;;;;;;;;5086435;28;20078;-79
2023/12/25 10:15:33;;;;;;;25.67;5.93;;;;;;;;;;5100598;28;20131;-79
2023/12/25 10:18:03;;;;;;;22.80;5.40;;;;;;;;;;5082360;28;20051;-79
2023/12/25 10:20:30;;;;;;;24.15;5.10;;;;;;;;;;5084182;28;20055;-79
2023/12/25 10:22:56;;;;;;;20.33;5.85;;;;;;;;;;5090359;28;20508;-79
2023/12/25 10:25:26;;;;;;;20.02;5.30;;;;;;;;;;5083884;28;20043;-79
2023/12/25 10:27:53;;;;;;;23.02;5.38;;;;;;;;;;5104666;28;20055;-79
2023/12/25 10:30:24;;;;;;;19.38;5.03;;;;;;;;;;5089657;28;20051;-79
2023/12/25 10:33:08;;;;;;;22.17;5.80;;;;;;;;;;5079088;28;20059;-80
2023/12/25 10:35:34;;;;;;;;;;;;;;;;;;5087418;28;20044;-79
2023/12/25 10:38:03;;;;;;;27.40;5.10;;;;;;;;;;5092378;28;19926;-79
2023/12/25 10:40:33;;;;;;;29.60;5.85;;;;;;;;;;5105904;28;20482;-79
2023/12/25 10:42:59;;;;;;;23.63;5.05;;;;;;;;;;5091820;28;20084;-79
2023/12/25 10:45:26;;;;;;;30.25;6.07;;;;;;;;;;5092364;27;20043;-80
2023/12/25 10:47:55;;;;;;;19.10;5.28;;;;;;;;;;5091214;28;20054;-79
2023/12/25 10:50:24;;;;;;;20.80;4.88;;;;;;;;;;5091056;27;20167;-80
2023/12/25 10:52:51;;;;;;;20.33;4.50;;;;;;;;;;5088650;28;20055;-77
2023/12/25 10:55:24;;;;;;;21.15;5.00;;;;;;;;;;5092216;28;20063;-78
2023/12/25 10:57:51;;;;;;;18.38;5.20;;;;;;;;;;5094388;28;20471;-78
2023/12/25 11:00:18;;;;;;;45.38;20.63;;;;;;;;;;5090384;28;20073;-79
2023/12/25 11:02:45;;;;;;;26.95;5.90;;;;;;;;;;5093435;28;20138;-79
2023/12/25 11:05:11;;;;;;;26.20;4.78;;;;;;;;;;5084726;28;20502;-78
2023/12/25 11:07:38;;;;;;;25.95;5.38;;;;;;;;;;5088039;27;20047;-78
2023/12/25 11:10:06;;;;;;;21.88;4.93;;;;;;;;;;5096284;28;20479;-80
2023/12/25 11:12:32;;;;;;;22.95;4.35;;;;;;;;;;5080374;28;20042;-79
2023/12/25 11:14:58;;;;;;;18.08;4.75;;;;;;;;;;5080316;28;20101;-78
2023/12/25 11:17:27;;;;;;;20.70;4.70;;;;;;;;;;5085948;28;20063;-78
2023/12/25 11:19:53;;;;;;;23.55;5.00;;;;;;;;;;5085667;28;20047;-78
2023/12/25 11:22:28;;;;;;;20.45;4.70;;;;;;;;;;5100086;28;20040;-82
2023/12/25 11:24:54;;;;;;;18.58;4.60;;;;;;;;;;5094609;28;20054;-78
2023/12/25 11:27:20;;;;;;;19.80;6.50;;;;;;;;;;5083338;28;20039;-78
2023/12/25 11:29:47;;;;;;;23.20;5.32;;;;;;;;;;5089332;28;20097;-78
2023/12/25 11:32:13;;;;;;;22.73;12.10;;;;;;;;;;5080369;28;20043;-78
2023/12/25 11:34:40;;;;;;;21.20;4.75;;;;;;;;;;5076197;28;20116;-81
2023/12/25 11:37:18;;;;;;;16.88;3.85;;;;;;;;;;5085122;28;20040;-79
2023/12/25 11:40:00;;;;;;;12.30;3.67;;;;;;;;;;5087817;28;20048;-79
2023/12/25 11:42:26;;;;;;;15.93;4.30;;;;;;;;;;5092096;28;20097;-80
2023/12/25 11:44:59;;;;;;;20.30;3.90;;;;;;;;;;5087523;28;20055;-79
2023/12/25 11:47:29;;;;;;;18.85;4.40;;;;;;;;;;5084590;28;20042;-79
2023/12/25 11:49:58;;;;;;;18.55;4.43;;;;;;;;;;5084590;28;20105;-79
2023/12/25 11:53:00;;;;;;;15.40;3.75;;;;;;;;;;5091161;28;20050;-79
2023/12/25 11:55:26;;;;;;;20.98;4.35;;;;;;;;;;4989894;28;20061;-79
2023/12/25 11:57:52;;;;;;;14.18;3.85;;;;;;;;;;5078993;28;20060;-79
2023/12/25 12:00:23;;;;;;;14.93;4.18;;;;;;;;;;5103054;27;20040;-78
2023/12/25 12:02:49;;;;;;;21.83;4.75;;;;;;;;;;5079353;28;20058;-85
2023/12/25 12:05:15;;;;;;;18.13;4.57;;;;;;;;;;5089558;28;20051;-78
2023/12/25 12:07:42;;;;;;;21.88;4.30;;;;;;;;;;5087906;28;20557;-80
2023/12/25 12:10:08;;;;;;;21.63;4.80;;;;;;;;;;5091631;27;20132;-81
2023/12/25 12:12:35;;;;;;;19.20;4.65;;;;;;;;;;5088470;28;20044;-77
2023/12/25 12:15:01;;;;;;;18.80;4.47;;;;;;;;;;5103509;28;20237;-80
2023/12/25 12:17:29;;;;;;;22.05;4.63;;;;;;;;;;5081112;28;20060;-80
2023/12/25 12:19:55;;;;;;;19.42;4.88;;;;;;;;;;5093404;28;20043;-80
2023/12/25 12:22:23;;;;;;;21.67;4.85;;;;;;;;;;5085405;28;20071;-80
2023/12/25 12:24:50;;;;;;;20.63;5.88;;;;;;;;;;5102865;28;20055;-80
2023/12/25 12:27:18;;;;;;;54.35;15.85;;;;;;;;;;5087913;28;20097;-80
2023/12/25 12:29:46;;;;;;;20.08;4.32;;;;;;;;;;5091129;28;20462;-80
2023/12/25 12:32:13;;;;;;;14.55;4.15;;;;;;;;;;5104401;28;20394;-80
2023/12/25 12:34:39;;;;;;;23.85;5.45;;;;;;;;;;5101585;28;20094;-80
2023/12/25 12:37:05;;;;;;;18.77;4.35;;;;;;;;;;5091041;28;20143;-80
2023/12/25 12:39:35;;;;;;;19.25;4.90;;;;;;;;;;5087344;28;20044;-80
2023/12/25 12:42:01;;;;;;;24.08;5.07;;;;;;;;;;5088798;28;20058;-80
2023/12/25 12:44:27;;;;;;;22.55;4.45;;;;;;;;;;5087685;28;20051;-80
2023/12/25 12:46:53;;;;;;;16.55;4.40;;;;;;;;;;5099379;27;20491;-84
2023/12/25 12:49:20;;;;;;;20.75;4.93;;;;;;;;;;5080770;28;20040;-83
2023/12/25 12:51:46;;;;;;;23.98;4.97;;;;;;;;;;5093143;28;20399;-84
2023/12/25 12:54:12;;;;;;;22.70;4.45;;;;;;;;;;5097260;27;20039;-84
2023/12/25 12:56:38;;;;;;;24.35;4.95;;;;;;;;;;5091614;28;20047;-83
2023/12/25 12:59:04;;;;;;;21.63;5.22;;;;;;;;;;5102983;28;20043;-78
2023/12/25 13:01:31;;;;;;;24.10;6.55;;;;;;;;;;5088798;28;20055;-79
2023/12/25 13:04:00;;;;;;;16.92;4.43;;;;;;;;;;5092448;28;20055;-80
2023/12/25 13:06:26;;;;;;;19.05;5.20;;;;;;;;;;5102787;28;20040;-80
2023/12/25 13:08:56;;;;;;;21.55;6.07;;;;;;;;;;5096346;28;20071;-80
2023/12/25 13:11:29;;;;;;;16.55;4.65;;;;;;;;;;5093475;28;20130;-79
2023/12/25 13:13:55;;;;;;;20.23;5.72;;;;;;;;;;5083735;28;20055;-80
2023/12/25 13:16:21;;;;;;;19.48;5.38;;;;;;;;;;5084888;28;20043;-80
2023/12/25 13:18:47;;;;;;;26.92;6.38;;;;;;;;;;5082738;28;20056;-79
2023/12/25 13:21:14;;;;;;;23.15;5.10;;;;;;;;;;5084459;28;20048;-81
2023/12/25 13:23:42;;;;;;;21.80;5.07;;;;;;;;;;5083404;28;20130;-86
2023/12/25 13:26:08;;;;;;;19.92;4.90;;;;;;;;;;5086130;28;20059;-84
2023/12/25 13:28:34;;;;;;;22.10;5.18;;;;;;;;;;5084890;28;20044;-85
2023/12/25 13:31:00;;;;;;;20.10;5.18;;;;;;;;;;5085797;28;20040;-85
2023/12/25 13:33:27;;;;;;;18.33;5.45;;;;;;;;;;5078982;28;20052;-85
2023/12/25 13:35:54;;;;;;;16.40;5.22;;;;;;;;;;5083809;28;20036;-80
2023/12/25 13:38:20;;;;;;;25.35;5.05;;;;;;;;;;5082282;28;20077;-86
2023/12/25 13:40:46;;;;;;;17.75;4.68;;;;;;;;;;5075465;28;20036;-80
2023/12/25 13:43:12;;;;;;;17.52;4.20;;;;;;;;;;5089302;28;20723;-82
2023/12/25 13:45:39;;;;;;;18.33;6.50;;;;;;;;;;5095715;28;20172;-81
2023/12/25 13:48:05;;;;;;;26.88;8.77;;;;;;;;;;5081152;28;20041;-84
2023/12/25 13:50:31;;;;;;;15.60;4.50;;;;;;;;;;5091384;28;20050;-86
2023/12/25 13:52:57;;;;;;;23.13;3.80;;;;;;;;;;5081935;28;20052;-82
2023/12/25 13:55:23;;;;;;;17.88;3.63;;;;;;;;;;5090794;28;20043;-78
2023/12/25 13:57:49;;;;;;;17.50;4.18;;;;;;;;;;5083316;28;20055;-79
2023/12/25 14:00:17;;;;;;;14.27;3.92;;;;;;;;;;5097544;27;20408;-79
2023/12/25 14:02:43;;;;;;;13.68;3.60;;;;;;;;;;5089332;28;20044;-80
2023/12/25 14:05:11;;;;;;;14.43;3.63;;;;;;;;;;5092221;28;20089;-80
2023/12/25 14:07:37;;;;;;;11.07;3.47;;;;;;;;;;5083653;28;20048;-84
2023/12/25 14:10:05;;;;;;;14.70;3.38;;;;;;;;;;5088935;28;20504;-80
2023/12/25 14:12:31;;;;;;;15.05;4.30;;;;;;;;;;5087332;28;20040;-82
2023/12/25 14:14:57;;;;;;;13.85;3.95;;;;;;;;;;5086847;28;20051;-82
2023/12/25 14:17:23;;;;;;;17.65;3.92;;;;;;;;;;5079994;28;20616;-84
2023/12/25 14:19:49;;;;;;;16.60;4.30;;;;;;;;;;5084919;28;20052;-82
2023/12/25 14:22:15;;;;;;;22.42;4.32;;;;;;;;;;5087974;28;20047;-76
2023/12/25 14:24:41;;;;;;;20.13;4.18;;;;;;;;;;5088952;28;20142;-81
2023/12/25 14:27:08;;;;;;;18.70;3.75;;;;;;;;;;5084838;28;20052;-79